Amity, Oregon
Current Conditions -  °F | °C
As of 4:02 AM on Thursday 29 Jan 2015 (Local Time) from KMMV Reporting Station
Haze Haze  
Wind Chill: 42°   Ceiling: Unl
Heat Index: 44°   Visibility: 3mi
Dew Point: 43°   Wind: 5mph
Humidity: 96%   Direction: 320°NW
Pressure: 30.32"   Gusts: NA
Location:  45.12°N, 123.21°W
Report Text: KMMV 291202Z AUTO 32004KT 3SM BR CLR 07/06 A3032 RMK AO2 T00670061
Loading
Personal Weather Stations






























Interactive Weather Map New forecast layout! Learn more

10-Day Weather Forecast

Advertisements
Track Severe Weather on mobile